Time;durP1;ratioP1;P1;durP2;ratioP2;P2;SDS_P1;SDS_P2;PMS_P1;PMS_P2;Temp;Humidity;BMP_temperature;BMP_pressure;BME280_temperature;BME280_humidity;BME280_pressure;Samples;Min_cycle;Max_cycle;Signal;HPM_P1;HPM_P2
2024/04/14 00:02:08;;;;;;;248.07;81.23;;;;;;;;;;5345884;26;20472;-41
2024/04/14 00:04:34;;;;;;;253.43;89.13;;;;;;;;;;5345559;26;20453;-42
2024/04/14 00:07:00;;;;;;;249.47;82.27;;;;;;;;;;5344857;26;20844;-42
2024/04/14 00:09:26;;;;;;;249.53;83.00;;;;;;;;;;5345656;26;20502;-42
2024/04/14 00:11:52;;;;;;;248.97;80.33;;;;;;;;;;5345424;26;20559;-42
2024/04/14 00:14:18;;;;;;;253.27;87.37;;;;;;;;;;5345325;26;20457;-42
2024/04/14 00:16:44;;;;;;;249.70;82.70;;;;;;;;;;5344920;26;20516;-42
2024/04/14 00:19:10;;;;;;;252.73;87.67;;;;;;;;;;5345321;26;20460;-42
2024/04/14 00:21:36;;;;;;;251.00;84.63;;;;;;;;;;5345409;26;21001;-42
2024/04/14 00:24:03;;;;;;;250.53;83.83;;;;;;;;;;5345253;26;20516;-42
2024/04/14 00:26:29;;;;;;;250.23;85.13;;;;;;;;;;5345355;26;20562;-41
2024/04/14 00:28:55;;;;;;;249.53;81.63;;;;;;;;;;5345183;26;20456;-41
2024/04/14 00:31:21;;;;;;;248.13;81.83;;;;;;;;;;5345417;26;20580;-42
2024/04/14 00:33:47;;;;;;;250.83;87.33;;;;;;;;;;5344994;26;20468;-41
2024/04/14 00:36:13;;;;;;;248.40;85.90;;;;;;;;;;5344944;26;20452;-42
2024/04/14 00:38:39;;;;;;;248.70;85.37;;;;;;;;;;5344843;26;20512;-42
2024/04/14 00:41:05;;;;;;;249.77;86.47;;;;;;;;;;5345032;26;20807;-41
2024/04/14 00:43:31;;;;;;;249.00;83.97;;;;;;;;;;5344756;26;20456;-41
2024/04/14 00:45:57;;;;;;;246.73;82.23;;;;;;;;;;5344543;26;20482;-41
2024/04/14 00:48:23;;;;;;;245.90;80.33;;;;;;;;;;5345218;26;20446;-41
2024/04/14 00:50:50;;;;;;;247.63;82.67;;;;;;;;;;5345165;26;20449;-41
2024/04/14 00:53:16;;;;;;;246.87;79.97;;;;;;;;;;5344850;26;20565;-41
2024/04/14 00:55:43;;;;;;;246.87;80.13;;;;;;;;;;5344897;26;20525;-41
2024/04/14 00:58:10;;;;;;;247.77;84.63;;;;;;;;;;5344973;26;20515;-41
2024/04/14 01:00:36;;;;;;;250.03;84.43;;;;;;;;;;5344446;26;20504;-42
2024/04/14 01:03:02;;;;;;;248.67;84.93;;;;;;;;;;5344403;26;20533;-42
2024/04/14 01:05:29;;;;;;;246.83;80.03;;;;;;;;;;5343626;26;20637;-41
2024/04/14 01:07:55;;;;;;;246.60;82.53;;;;;;;;;;5330961;26;20532;-41
2024/04/14 01:10:23;;;;;;;247.10;80.97;;;;;;;;;;5344308;26;20456;-41
2024/04/14 01:12:49;;;;;;;247.03;82.83;;;;;;;;;;5344094;26;20541;-41
2024/04/14 01:15:15;;;;;;;249.57;82.23;;;;;;;;;;5344678;26;20457;-41
2024/04/14 01:17:41;;;;;;;243.67;77.93;;;;;;;;;;5344530;26;21200;-41
2024/04/14 01:20:08;;;;;;;246.67;80.97;;;;;;;;;;5344296;26;21015;-41
2024/04/14 01:22:34;;;;;;;244.67;79.30;;;;;;;;;;5344678;26;20509;-41
2024/04/14 01:25:07;;;;;;;246.10;78.37;;;;;;;;;;5346708;26;21039;-41
2024/04/14 01:27:33;;;;;;;247.07;81.93;;;;;;;;;;5344180;26;20571;-41
2024/04/14 01:29:59;;;;;;;245.67;79.77;;;;;;;;;;5344625;26;20461;-41
2024/04/14 01:32:25;;;;;;;241.27;76.77;;;;;;;;;;5344346;26;20530;-41
2024/04/14 01:34:51;;;;;;;245.87;81.10;;;;;;;;;;5344823;26;20454;-41
2024/04/14 01:37:17;;;;;;;241.07;74.57;;;;;;;;;;5343937;26;20582;-41
2024/04/14 01:39:43;;;;;;;242.30;77.10;;;;;;;;;;5344086;26;20454;-41
2024/04/14 01:42:09;;;;;;;244.33;77.00;;;;;;;;;;5344032;26;20540;-41
2024/04/14 01:44:35;;;;;;;245.93;77.67;;;;;;;;;;5344396;26;20521;-41
2024/04/14 01:47:02;;;;;;;242.40;77.77;;;;;;;;;;5342951;26;20453;-41
2024/04/14 01:49:28;;;;;;;245.60;79.70;;;;;;;;;;5346652;26;20455;-42
2024/04/14 01:51:54;;;;;;;247.67;81.77;;;;;;;;;;5344051;26;20576;-41
2024/04/14 01:54:20;;;;;;;245.30;77.70;;;;;;;;;;5343932;26;21003;-42
2024/04/14 01:56:46;;;;;;;246.60;80.47;;;;;;;;;;5344359;26;20464;-42
2024/04/14 01:59:12;;;;;;;246.80;81.23;;;;;;;;;;5344098;26;20453;-41
2024/04/14 02:01:38;;;;;;;243.07;76.87;;;;;;;;;;5344150;26;20906;-41
2024/04/14 02:04:04;;;;;;;242.80;76.80;;;;;;;;;;5343849;26;20453;-41
2024/04/14 02:06:31;;;;;;;244.50;78.17;;;;;;;;;;5344363;26;20554;-41
2024/04/14 02:08:57;;;;;;;246.73;81.93;;;;;;;;;;5344487;26;20461;-41
2024/04/14 02:11:23;;;;;;;244.47;77.97;;;;;;;;;;5358839;26;20456;-41
2024/04/14 02:13:49;;;;;;;243.43;77.07;;;;;;;;;;5343987;26;20458;-41
2024/04/14 02:16:15;;;;;;;244.77;79.87;;;;;;;;;;5343421;26;20458;-41
2024/04/14 02:18:41;;;;;;;242.53;76.97;;;;;;;;;;5344307;26;20562;-41
2024/04/14 02:21:08;;;;;;;244.67;78.47;;;;;;;;;;5343769;26;20461;-41
2024/04/14 02:23:34;;;;;;;245.27;77.00;;;;;;;;;;5346339;26;20498;-41
2024/04/14 02:26:00;;;;;;;241.07;73.20;;;;;;;;;;5343700;26;20805;-41
2024/04/14 02:28:26;;;;;;;242.63;74.93;;;;;;;;;;5343775;26;20560;-41
2024/04/14 02:30:52;;;;;;;240.27;75.00;;;;;;;;;;5343812;26;20469;-41
2024/04/14 02:33:18;;;;;;;242.67;77.00;;;;;;;;;;5341266;26;20501;-41
2024/04/14 02:35:55;;;;;;;242.17;75.87;;;;;;;;;;5344710;26;20521;-41
2024/04/14 02:38:21;;;;;;;242.57;75.10;;;;;;;;;;5343812;26;20579;-42
2024/04/14 02:40:56;;;;;;;241.40;75.17;;;;;;;;;;5343747;26;20973;-42
2024/04/14 02:43:22;;;;;;;244.57;79.87;;;;;;;;;;5335314;26;20793;-42
2024/04/14 02:45:48;;;;;;;244.27;76.43;;;;;;;;;;5343238;26;20448;-41
2024/04/14 02:48:14;;;;;;;243.50;78.20;;;;;;;;;;5343470;26;20453;-41
2024/04/14 02:50:40;;;;;;;242.77;76.97;;;;;;;;;;5342927;26;21110;-41
2024/04/14 02:53:06;;;;;;;245.97;77.43;;;;;;;;;;5343123;26;20457;-41
2024/04/14 02:55:32;;;;;;;243.73;79.17;;;;;;;;;;5343074;26;20469;-41
2024/04/14 02:58:01;;;;;;;243.17;77.57;;;;;;;;;;5342822;26;20905;-42
2024/04/14 03:00:27;;;;;;;240.60;73.57;;;;;;;;;;5342578;26;20457;-41
2024/04/14 03:02:53;;;;;;;242.80;76.00;;;;;;;;;;5343547;26;20863;-41
2024/04/14 03:05:19;;;;;;;247.60;82.27;;;;;;;;;;5342721;26;20872;-41
2024/04/14 03:07:45;;;;;;;240.87;75.57;;;;;;;;;;5342785;26;21097;-41
2024/04/14 03:10:12;;;;;;;244.37;79.53;;;;;;;;;;5342839;26;20511;-41
2024/04/14 03:12:38;;;;;;;243.40;77.70;;;;;;;;;;5342893;26;20517;-41
2024/04/14 03:15:05;;;;;;;240.43;74.47;;;;;;;;;;5342679;26;20934;-42
2024/04/14 03:17:31;;;;;;;241.07;76.83;;;;;;;;;;5342901;26;20454;-41
2024/04/14 03:19:57;;;;;;;243.37;75.53;;;;;;;;;;5342493;26;20854;-42
2024/04/14 03:22:23;;;;;;;242.10;75.70;;;;;;;;;;5333806;26;20461;-42
2024/04/14 03:24:50;;;;;;;242.77;76.67;;;;;;;;;;5342664;26;20972;-41
2024/04/14 03:27:16;;;;;;;243.00;76.20;;;;;;;;;;5347921;26;20505;-41
2024/04/14 03:29:43;;;;;;;240.87;75.10;;;;;;;;;;5342644;26;21043;-41
2024/04/14 03:32:09;;;;;;;243.07;74.37;;;;;;;;;;5342507;26;21080;-41
2024/04/14 03:34:35;;;;;;;238.53;72.70;;;;;;;;;;5342515;26;20532;-41
2024/04/14 03:37:01;;;;;;;241.23;74.67;;;;;;;;;;5341832;26;20999;-41
2024/04/14 03:39:27;;;;;;;238.43;72.13;;;;;;;;;;5342466;26;20513;-41
2024/04/14 03:41:55;;;;;;;241.77;74.20;;;;;;;;;;5342439;26;20465;-41
2024/04/14 03:44:21;;;;;;;239.47;73.17;;;;;;;;;;5342479;26;20472;-41
2024/04/14 03:46:47;;;;;;;245.00;79.27;;;;;;;;;;5338400;26;20465;-41
2024/04/14 03:49:13;;;;;;;242.77;76.77;;;;;;;;;;5342609;26;20527;-41
2024/04/14 03:51:39;;;;;;;242.93;77.80;;;;;;;;;;5342233;26;20461;-41
2024/04/14 03:54:05;;;;;;;242.00;78.13;;;;;;;;;;5342240;26;20516;-41
2024/04/14 03:56:31;;;;;;;243.63;76.57;;;;;;;;;;5341742;26;20473;-41
2024/04/14 03:58:57;;;;;;;245.37;78.20;;;;;;;;;;5342054;26;20526;-41
2024/04/14 04:01:23;;;;;;;240.80;75.20;;;;;;;;;;5333363;26;20516;-41
2024/04/14 04:03:51;;;;;;;243.83;78.23;;;;;;;;;;5341915;26;20470;-42
2024/04/14 04:06:17;;;;;;;244.03;78.00;;;;;;;;;;5341603;26;20465;-41
2024/04/14 04:08:45;;;;;;;241.97;76.17;;;;;;;;;;5341718;26;20461;-41
2024/04/14 04:11:10;;;;;;;240.97;74.70;;;;;;;;;;5344635;26;20505;-41
2024/04/14 04:13:36;;;;;;;240.67;72.50;;;;;;;;;;5345447;26;20460;-41
2024/04/14 04:16:03;;;;;;;242.80;76.80;;;;;;;;;;5344813;26;20541;-42
2024/04/14 04:18:30;;;;;;;239.87;73.27;;;;;;;;;;5345113;26;20510;-42
2024/04/14 04:20:57;;;;;;;245.77;79.67;;;;;;;;;;5345473;26;20992;-42
2024/04/14 04:23:23;;;;;;;246.83;82.00;;;;;;;;;;5345479;26;20515;-41
2024/04/14 04:25:49;;;;;;;243.87;77.90;;;;;;;;;;5344742;26;20460;-41
2024/04/14 04:28:15;;;;;;;244.77;78.50;;;;;;;;;;5331137;26;20998;-41
2024/04/14 04:30:41;;;;;;;241.87;76.57;;;;;;;;;;5344860;26;20453;-41
2024/04/14 04:33:07;;;;;;;241.23;75.40;;;;;;;;;;5345227;26;21324;-41
2024/04/14 04:35:33;;;;;;;242.50;77.70;;;;;;;;;;5345121;26;20460;-41
2024/04/14 04:37:59;;;;;;;242.17;76.27;;;;;;;;;;5344884;26;20456;-41
2024/04/14 04:40:25;;;;;;;240.13;74.17;;;;;;;;;;5344927;26;20510;-42
2024/04/14 04:42:52;;;;;;;242.50;77.00;;;;;;;;;;5344871;26;20508;-41
2024/04/14 04:45:18;;;;;;;241.57;75.03;;;;;;;;;;5344210;26;20525;-42
2024/04/14 04:47:44;;;;;;;241.10;74.80;;;;;;;;;;5344974;26;20569;-41
2024/04/14 04:50:10;;;;;;;241.27;72.07;;;;;;;;;;5347590;26;20544;-41
2024/04/14 04:52:36;;;;;;;236.03;69.93;;;;;;;;;;5344790;26;20456;-41
2024/04/14 04:55:02;;;;;;;240.83;73.97;;;;;;;;;;5344924;26;20501;-42
2024/04/14 04:57:28;;;;;;;243.97;78.03;;;;;;;;;;5345195;26;20460;-42
2024/04/14 04:59:54;;;;;;;244.47;79.57;;;;;;;;;;5344909;26;20452;-41
2024/04/14 05:02:20;;;;;;;244.97;79.47;;;;;;;;;;5344804;26;20548;-42
2024/04/14 05:04:46;;;;;;;244.33;76.57;;;;;;;;;;5344925;26;20866;-42
2024/04/14 05:07:12;;;;;;;242.53;75.37;;;;;;;;;;5344377;26;20523;-41
2024/04/14 05:09:38;;;;;;;242.47;75.83;;;;;;;;;;5344987;26;20507;-42
2024/04/14 05:12:04;;;;;;;253.87;85.60;;;;;;;;;;5341315;26;20980;-41
2024/04/14 05:14:30;;;;;;;243.50;75.83;;;;;;;;;;5344419;26;20513;-41
2024/04/14 05:16:56;;;;;;;244.20;80.30;;;;;;;;;;5344293;26;20457;-41
2024/04/14 05:19:22;;;;;;;242.30;78.33;;;;;;;;;;5354178;26;20520;-41
2024/04/14 05:21:48;;;;;;;244.40;77.53;;;;;;;;;;5343161;26;20516;-41
2024/04/14 05:24:14;;;;;;;243.70;78.70;;;;;;;;;;5344329;26;20474;-41
2024/04/14 05:26:40;;;;;;;242.67;77.47;;;;;;;;;;5343645;26;20509;-41
2024/04/14 05:29:06;;;;;;;240.83;75.67;;;;;;;;;;5344102;26;20510;-41
2024/04/14 05:31:32;;;;;;;243.83;80.93;;;;;;;;;;5351165;26;21070;-42
2024/04/14 05:33:57;;;;;;;239.83;74.70;;;;;;;;;;5344047;26;21031;-42
2024/04/14 05:36:23;;;;;;;239.00;71.80;;;;;;;;;;5344145;26;20458;-41
2024/04/14 05:38:50;;;;;;;239.70;74.23;;;;;;;;;;5344186;26;20457;-41
2024/04/14 05:41:15;;;;;;;241.17;72.93;;;;;;;;;;5344654;26;20537;-42
2024/04/14 05:43:42;;;;;;;242.37;75.40;;;;;;;;;;5343861;26;20532;-42
2024/04/14 05:46:08;;;;;;;240.50;73.20;;;;;;;;;;5343628;26;20847;-41
2024/04/14 05:48:34;;;;;;;241.57;73.80;;;;;;;;;;5344073;26;20461;-41
2024/04/14 05:51:00;;;;;;;239.50;73.50;;;;;;;;;;5343990;26;21103;-41
2024/04/14 05:53:26;;;;;;;238.27;72.07;;;;;;;;;;5343860;26;20528;-41
2024/04/14 05:55:52;;;;;;;242.70;77.30;;;;;;;;;;5343908;26;20575;-41
2024/04/14 05:58:18;;;;;;;242.00;75.60;;;;;;;;;;5343764;26;20456;-41
2024/04/14 06:00:44;;;;;;;239.33;72.37;;;;;;;;;;5343909;26;20590;-42
2024/04/14 06:03:09;;;;;;;242.87;77.30;;;;;;;;;;5344294;26;21264;-41
2024/04/14 06:05:37;;;;;;;243.00;77.97;;;;;;;;;;5344026;26;20529;-42
2024/04/14 06:08:03;;;;;;;242.70;77.37;;;;;;;;;;5339277;26;20533;-41
2024/04/14 06:10:29;;;;;;;241.50;76.57;;;;;;;;;;5343782;26;20534;-42
2024/04/14 06:12:56;;;;;;;240.97;74.13;;;;;;;;;;5343683;26;20457;-42
2024/04/14 06:15:23;;;;;;;241.57;75.00;;;;;;;;;;5343697;26;20537;-41
2024/04/14 06:17:49;;;;;;;243.47;76.40;;;;;;;;;;5343156;26;20466;-41
2024/04/14 06:20:15;;;;;;;243.07;78.63;;;;;;;;;;5343672;26;20450;-41
2024/04/14 06:22:41;;;;;;;244.17;78.93;;;;;;;;;;5343772;26;20519;-42
2024/04/14 06:25:07;;;;;;;245.03;77.87;;;;;;;;;;5343298;26;20454;-41
2024/04/14 06:27:33;;;;;;;247.43;79.30;;;;;;;;;;5343303;26;20513;-42
2024/04/14 06:30:00;;;;;;;242.70;75.73;;;;;;;;;;5342790;26;20572;-42
2024/04/14 06:32:26;;;;;;;245.07;81.30;;;;;;;;;;5342747;26;20466;-42
2024/04/14 06:34:53;;;;;;;245.77;79.60;;;;;;;;;;5342792;26;20529;-42
2024/04/14 06:37:19;;;;;;;244.60;79.87;;;;;;;;;;5342315;26;20449;-42
2024/04/14 06:39:45;;;;;;;246.07;80.77;;;;;;;;;;5342573;26;20971;-41
2024/04/14 06:42:13;;;;;;;243.77;78.43;;;;;;;;;;5342981;26;20485;-41
2024/04/14 06:44:38;;;;;;;243.90;77.43;;;;;;;;;;5342665;26;20522;-41
2024/04/14 06:47:04;;;;;;;243.43;76.57;;;;;;;;;;5342449;26;20990;-42
2024/04/14 06:49:31;;;;;;;240.67;75.47;;;;;;;;;;5343053;26;21091;-41
2024/04/14 06:51:57;;;;;;;244.00;78.27;;;;;;;;;;5343189;26;20441;-42
2024/04/14 06:54:24;;;;;;;245.50;79.37;;;;;;;;;;5343192;26;20453;-41
2024/04/14 06:56:50;;;;;;;243.93;76.23;;;;;;;;;;5342572;26;20573;-41
2024/04/14 06:59:16;;;;;;;243.70;77.70;;;;;;;;;;5343169;26;20855;-41
2024/04/14 07:01:42;;;;;;;245.93;78.33;;;;;;;;;;5343039;26;20461;-41
2024/04/14 07:04:08;;;;;;;244.40;79.97;;;;;;;;;;5343015;26;20452;-42
2024/04/14 07:06:34;;;;;;;246.50;81.37;;;;;;;;;;5342615;26;20462;-42
2024/04/14 07:09:00;;;;;;;246.60;80.60;;;;;;;;;;5342472;26;20865;-41
2024/04/14 07:11:26;;;;;;;244.23;80.20;;;;;;;;;;5343756;26;20457;-41
2024/04/14 07:13:52;;;;;;;240.83;76.53;;;;;;;;;;5343187;26;20460;-41
2024/04/14 07:16:18;;;;;;;243.90;78.80;;;;;;;;;;5342730;26;20503;-41
2024/04/14 07:18:47;;;;;;;240.97;74.70;;;;;;;;;;5343204;26;20450;-41
2024/04/14 07:21:13;;;;;;;241.57;76.30;;;;;;;;;;5342904;26;21047;-41
2024/04/14 07:23:39;;;;;;;247.73;81.63;;;;;;;;;;5345171;26;20995;-41
2024/04/14 07:26:05;;;;;;;245.67;78.63;;;;;;;;;;5342535;26;20520;-42
2024/04/14 07:28:31;;;;;;;245.40;80.47;;;;;;;;;;5342796;26;20456;-41
2024/04/14 07:30:57;;;;;;;246.40;81.27;;;;;;;;;;5342862;26;20517;-42
2024/04/14 07:33:24;;;;;;;249.17;83.17;;;;;;;;;;5342849;26;20552;-42
2024/04/14 07:35:50;;;;;;;252.00;87.43;;;;;;;;;;5342473;26;20462;-41
2024/04/14 07:38:16;;;;;;;251.47;85.07;;;;;;;;;;5339488;26;20513;-42
2024/04/14 07:40:42;;;;;;;247.97;82.67;;;;;;;;;;5341807;26;20458;-42
2024/04/14 07:43:08;;;;;;;246.07;82.43;;;;;;;;;;5340794;26;21082;-42
2024/04/14 07:45:35;;;;;;;250.43;85.13;;;;;;;;;;5342771;26;21084;-42
2024/04/14 07:48:01;;;;;;;248.27;87.07;;;;;;;;;;5345324;26;20450;-42
2024/04/14 07:50:27;;;;;;;248.97;88.07;;;;;;;;;;5345696;26;20514;-42
2024/04/14 07:52:53;;;;;;;249.83;88.57;;;;;;;;;;5345369;26;20836;-42
2024/04/14 07:55:19;;;;;;;250.23;88.43;;;;;;;;;;5345340;26;20497;-42
2024/04/14 07:57:45;;;;;;;248.93;84.37;;;;;;;;;;5357859;26;21017;-42
2024/04/14 08:00:11;;;;;;;248.83;86.60;;;;;;;;;;5348178;26;20504;-42
2024/04/14 08:02:38;;;;;;;260.10;94.53;;;;;;;;;;5341833;26;20465;-42
2024/04/14 08:05:04;;;;;;;252.47;87.13;;;;;;;;;;5348980;26;20939;-41
2024/04/14 08:07:30;;;;;;;253.73;90.07;;;;;;;;;;5343615;26;20514;-41
2024/04/14 08:09:56;;;;;;;247.10;86.53;;;;;;;;;;5349223;26;20815;-41
2024/04/14 08:12:23;;;;;;;245.50;82.03;;;;;;;;;;5345025;26;20509;-41
2024/04/14 08:14:49;;;;;;;248.77;88.03;;;;;;;;;;5345033;26;20506;-41
2024/04/14 08:17:15;;;;;;;249.43;88.00;;;;;;;;;;5344058;26;20453;-41
2024/04/14 08:19:41;;;;;;;245.20;81.40;;;;;;;;;;5339687;26;20445;-41
2024/04/14 08:22:07;;;;;;;250.17;87.27;;;;;;;;;;5345650;26;20457;-41
2024/04/14 08:24:33;;;;;;;246.27;84.43;;;;;;;;;;5347428;26;20502;-41
2024/04/14 08:26:59;;;;;;;246.83;84.20;;;;;;;;;;5343446;26;20536;-41
2024/04/14 08:29:25;;;;;;;248.07;85.40;;;;;;;;;;5344400;26;20455;-41
2024/04/14 08:31:51;;;;;;;245.70;81.63;;;;;;;;;;5343084;26;21268;-41
2024/04/14 08:34:18;;;;;;;249.63;83.67;;;;;;;;;;5344548;26;20524;-41
2024/04/14 08:36:43;;;;;;;250.30;85.57;;;;;;;;;;5343090;26;20457;-41
2024/04/14 08:39:09;;;;;;;247.37;84.60;;;;;;;;;;5344482;26;20501;-42
2024/04/14 08:41:41;;;;;;;242.67;79.40;;;;;;;;;;5344998;26;20509;-41
2024/04/14 08:44:11;;;;;;;248.43;84.03;;;;;;;;;;5341991;26;20544;-41
2024/04/14 08:46:37;;;;;;;244.00;80.40;;;;;;;;;;5345172;26;21118;-41
2024/04/14 08:49:03;;;;;;;248.37;85.27;;;;;;;;;;5345375;26;20446;-41
2024/04/14 08:51:30;;;;;;;248.97;86.87;;;;;;;;;;5344846;26;20449;-41
2024/04/14 08:53:57;;;;;;;244.43;80.93;;;;;;;;;;5344984;26;20475;-41
2024/04/14 08:56:24;;;;;;;247.53;84.63;;;;;;;;;;5344692;26;21052;-41
2024/04/14 08:58:55;;;;;;;247.03;83.10;;;;;;;;;;5344917;26;20462;-41
2024/04/14 09:01:21;;;;;;;249.03;88.27;;;;;;;;;;5345364;26;20447;-41
2024/04/14 09:03:48;;;;;;;249.57;87.83;;;;;;;;;;5345213;26;20466;-41
2024/04/14 09:06:14;;;;;;;249.63;86.73;;;;;;;;;;5344715;26;20455;-41
2024/04/14 09:08:40;;;;;;;249.40;87.73;;;;;;;;;;5343197;26;20457;-41
2024/04/14 09:11:07;;;;;;;253.47;92.57;;;;;;;;;;5342672;26;20612;-41
2024/04/14 09:13:34;;;;;;;250.47;91.47;;;;;;;;;;5351891;26;20795;-41
2024/04/14 09:16:00;;;;;;;250.77;88.80;;;;;;;;;;5350151;26;20505;-42
2024/04/14 09:18:25;;;;;;;248.83;87.37;;;;;;;;;;5344819;26;20459;-41
2024/04/14 09:20:51;;;;;;;247.20;85.33;;;;;;;;;;5332477;26;20473;-41
2024/04/14 09:23:17;;;;;;;245.03;82.47;;;;;;;;;;5344967;26;20458;-41
2024/04/14 09:25:44;;;;;;;249.67;87.90;;;;;;;;;;5344096;26;20522;-41
2024/04/14 09:28:14;;;;;;;252.00;91.57;;;;;;;;;;5344840;26;20553;-42
2024/04/14 09:30:40;;;;;;;252.83;93.13;;;;;;;;;;5343620;26;20505;-42
2024/04/14 09:33:06;;;;;;;253.57;94.27;;;;;;;;;;5342548;26;20543;-41
2024/04/14 09:35:34;;;;;;;251.63;93.07;;;;;;;;;;5343377;26;21001;-41
2024/04/14 09:38:00;;;;;;;246.87;85.97;;;;;;;;;;5344579;26;20784;-42
2024/04/14 09:40:26;;;;;;;247.70;88.00;;;;;;;;;;5350479;26;21067;-41
2024/04/14 09:42:59;;;;;;;246.23;85.53;;;;;;;;;;5348352;26;20526;-42
2024/04/14 09:45:25;;;;;;;249.53;90.97;;;;;;;;;;5329663;26;20816;-41
2024/04/14 09:47:53;;;;;;;250.93;90.83;;;;;;;;;;5343863;26;20475;-41
2024/04/14 09:50:23;;;;;;;249.10;88.70;;;;;;;;;;5330368;26;20502;-41
2024/04/14 09:52:52;;;;;;;249.37;85.13;;;;;;;;;;5329438;26;20468;-41
2024/04/14 09:55:18;;;;;;;252.03;90.77;;;;;;;;;;5343720;26;20585;-41
2024/04/14 09:57:44;;;;;;;250.57;85.77;;;;;;;;;;5343772;26;20906;-41
2024/04/14 10:00:10;;;;;;;247.33;87.63;;;;;;;;;;5343123;26;20458;-42
2024/04/14 10:02:39;;;;;;;249.70;90.23;;;;;;;;;;5342254;26;20469;-41
2024/04/14 10:05:08;;;;;;;255.43;89.43;;;;;;;;;;5344282;26;20507;-41
2024/04/14 10:07:34;;;;;;;248.67;85.97;;;;;;;;;;5343833;26;20485;-42
2024/04/14 10:10:00;;;;;;;248.07;87.00;;;;;;;;;;5343848;26;20458;-42
2024/04/14 10:12:27;;;;;;;253.37;91.87;;;;;;;;;;5340920;26;21014;-43
2024/04/14 10:14:54;;;;;;;252.60;90.83;;;;;;;;;;5344696;26;20468;-42
2024/04/14 10:17:21;;;;;;;247.87;86.53;;;;;;;;;;5344134;26;21242;-42
2024/04/14 10:19:57;;;;;;;252.93;93.93;;;;;;;;;;5357803;26;20443;-42
2024/04/14 10:22:36;;;;;;;250.77;91.97;;;;;;;;;;5343158;26;21067;-42
2024/04/14 10:25:02;;;;;;;257.80;98.23;;;;;;;;;;5343691;26;20550;-42
2024/04/14 10:27:34;;;;;;;254.57;100.97;;;;;;;;;;5344308;26;20828;-42
2024/04/14 10:30:01;;;;;;;253.90;96.83;;;;;;;;;;5342861;26;20597;-41
2024/04/14 10:32:27;;;;;;;252.73;96.50;;;;;;;;;;5353390;26;20509;-42
2024/04/14 10:34:53;;;;;;;251.87;95.67;;;;;;;;;;5343920;26;20458;-43
2024/04/14 10:37:23;;;;;;;253.90;97.93;;;;;;;;;;5343227;26;20543;-42
2024/04/14 10:39:50;;;;;;;251.77;92.67;;;;;;;;;;5343994;26;20457;-42
2024/04/14 10:42:17;;;;;;;252.33;94.27;;;;;;;;;;5343519;26;20515;-42
2024/04/14 10:44:43;;;;;;;254.43;96.37;;;;;;;;;;5343195;26;20507;-42
2024/04/14 10:47:10;;;;;;;257.20;98.20;;;;;;;;;;5343442;26;20519;-41
2024/04/14 10:49:36;;;;;;;252.27;95.07;;;;;;;;;;5344034;26;20442;-42
2024/04/14 10:52:02;;;;;;;255.83;97.43;;;;;;;;;;5343667;26;20505;-42
2024/04/14 10:54:29;;;;;;;247.90;88.17;;;;;;;;;;5343628;26;20793;-42
2024/04/14 10:56:55;;;;;;;256.33;98.70;;;;;;;;;;5341267;26;20461;-42
2024/04/14 10:59:22;;;;;;;248.90;90.53;;;;;;;;;;5343750;26;20508;-43
2024/04/14 11:01:48;;;;;;;255.30;99.53;;;;;;;;;;5341092;26;20862;-43
2024/04/14 11:04:16;;;;;;;252.40;96.70;;;;;;;;;;5344713;26;20565;-42
2024/04/14 11:06:42;;;;;;;254.13;93.90;;;;;;;;;;5343197;26;20598;-42
2024/04/14 11:09:08;;;;;;;255.43;91.50;;;;;;;;;;5345391;26;20452;-41
2024/04/14 11:11:34;;;;;;;252.27;89.73;;;;;;;;;;5341865;26;20451;-41
2024/04/14 11:14:01;;;;;;;251.27;92.33;;;;;;;;;;5343303;26;20516;-41
2024/04/14 11:16:27;;;;;;;247.57;87.97;;;;;;;;;;5342393;26;20566;-41
2024/04/14 11:18:53;;;;;;;249.20;88.93;;;;;;;;;;5343496;26;20530;-41
2024/04/14 11:21:19;;;;;;;247.50;86.07;;;;;;;;;;5345642;26;20463;-41
2024/04/14 11:23:49;;;;;;;248.37;90.50;;;;;;;;;;5346342;26;20805;-41
2024/04/14 11:26:16;;;;;;;249.07;87.13;;;;;;;;;;5346305;26;20524;-41
2024/04/14 11:28:42;;;;;;;254.53;95.20;;;;;;;;;;5345786;26;20570;-42
2024/04/14 11:31:08;;;;;;;249.90;90.77;;;;;;;;;;5345595;26;20444;-42
2024/04/14 11:33:34;;;;;;;248.97;91.30;;;;;;;;;;5345059;26;20457;-42
2024/04/14 11:36:01;;;;;;;250.43;93.60;;;;;;;;;;5345979;26;20923;-41
2024/04/14 11:38:28;;;;;;;248.70;91.07;;;;;;;;;;5346592;26;20453;-41
2024/04/14 11:40:54;;;;;;;247.37;86.93;;;;;;;;;;5346516;26;21006;-42
2024/04/14 11:43:20;;;;;;;250.37;91.33;;;;;;;;;;5346139;26;21047;-42
2024/04/14 11:45:50;;;;;;;246.00;83.60;;;;;;;;;;5345941;26;20504;-42
2024/04/14 11:48:17;;;;;;;250.33;90.77;;;;;;;;;;5346081;26;20446;-41
2024/04/14 11:50:43;;;;;;;247.70;87.33;;;;;;;;;;5348871;26;20474;-42
2024/04/14 11:53:09;;;;;;;250.23;89.17;;;;;;;;;;5345694;26;20463;-41
2024/04/14 11:55:35;;;;;;;249.47;88.17;;;;;;;;;;5346194;26;20530;-41
2024/04/14 11:58:02;;;;;;;251.20;91.63;;;;;;;;;;5345833;26;20463;-41
2024/04/14 12:00:29;;;;;;;249.23;87.50;;;;;;;;;;5346542;26;20515;-42
2024/04/14 12:02:55;;;;;;;248.07;88.00;;;;;;;;;;5345925;26;20524;-41
2024/04/14 12:05:21;;;;;;;253.23;93.10;;;;;;;;;;5345844;26;20898;-41
2024/04/14 12:07:48;;;;;;;250.20;90.07;;;;;;;;;;5345823;26;20460;-42
2024/04/14 12:10:14;;;;;;;250.43;92.47;;;;;;;;;;5345952;26;20535;-42
2024/04/14 12:12:42;;;;;;;250.47;91.77;;;;;;;;;;5345824;26;20521;-42
2024/04/14 12:15:08;;;;;;;262.93;99.10;;;;;;;;;;5345152;26;20538;-42
2024/04/14 12:17:34;;;;;;;245.60;87.87;;;;;;;;;;5345877;26;20456;-41
2024/04/14 12:20:00;;;;;;;249.67;93.77;;;;;;;;;;5345885;26;20455;-41
2024/04/14 12:22:27;;;;;;;254.33;99.57;;;;;;;;;;5346348;26;20460;-42
2024/04/14 12:24:53;;;;;;;252.27;94.00;;;;;;;;;;5348643;26;20445;-43
2024/04/14 12:27:19;;;;;;;252.33;95.77;;;;;;;;;;5345433;26;20453;-42
2024/04/14 12:29:47;;;;;;;253.47;97.77;;;;;;;;;;5345594;26;20601;-43
2024/04/14 12:32:13;;;;;;;254.33;98.93;;;;;;;;;;5345347;26;20507;-42
2024/04/14 12:34:39;;;;;;;255.97;103.00;;;;;;;;;;5345697;26;20472;-42
2024/04/14 12:37:05;;;;;;;252.77;96.97;;;;;;;;;;5345492;26;20804;-42
2024/04/14 12:39:30;;;;;;;252.57;95.80;;;;;;;;;;5345573;26;20445;-42
2024/04/14 12:41:57;;;;;;;251.27;93.00;;;;;;;;;;5345780;26;20513;-43
2024/04/14 12:44:23;;;;;;;251.47;94.50;;;;;;;;;;5345988;26;20448;-43
2024/04/14 12:46:49;;;;;;;251.97;93.10;;;;;;;;;;5345305;26;20596;-41
2024/04/14 12:49:22;;;;;;;250.73;91.60;;;;;;;;;;5346197;26;20514;-41
2024/04/14 12:51:48;;;;;;;251.27;93.73;;;;;;;;;;5345559;26;20524;-42
2024/04/14 12:54:14;;;;;;;251.17;93.90;;;;;;;;;;5345401;26;20459;-41
2024/04/14 12:56:40;;;;;;;252.33;94.43;;;;;;;;;;5344925;26;21099;-42
2024/04/14 12:59:06;;;;;;;255.73;100.60;;;;;;;;;;5345140;26;20525;-42
2024/04/14 13:01:33;;;;;;;254.87;101.20;;;;;;;;;;5345462;26;20513;-42
2024/04/14 13:03:59;;;;;;;248.87;92.83;;;;;;;;;;5345342;26;20500;-42
2024/04/14 13:06:25;;;;;;;250.40;97.23;;;;;;;;;;5345339;26;20453;-41
2024/04/14 13:08:52;;;;;;;252.53;97.77;;;;;;;;;;5345332;26;20509;-42
2024/04/14 13:11:18;;;;;;;250.53;93.77;;;;;;;;;;5344966;26;20461;-42
2024/04/14 13:13:44;;;;;;;255.70;102.90;;;;;;;;;;5345070;26;20988;-42
2024/04/14 13:16:11;;;;;;;250.87;93.90;;;;;;;;;;5344855;26;20578;-41
2024/04/14 13:18:37;;;;;;;251.57;93.03;;;;;;;;;;5344979;26;20758;-41
2024/04/14 13:21:03;;;;;;;249.27;91.83;;;;;;;;;;5345251;26;20855;-42
2024/04/14 13:23:32;;;;;;;246.27;85.47;;;;;;;;;;5348467;26;20826;-42
2024/04/14 13:25:58;;;;;;;251.57;93.37;;;;;;;;;;5344660;26;20544;-41
2024/04/14 13:28:24;;;;;;;248.73;93.03;;;;;;;;;;5345038;26;20468;-41
2024/04/14 13:30:50;;;;;;;249.53;92.87;;;;;;;;;;5345070;26;20509;-42
2024/04/14 13:33:16;;;;;;;248.83;91.43;;;;;;;;;;5343597;26;20827;-42
2024/04/14 13:35:42;;;;;;;250.83;94.30;;;;;;;;;;5344294;26;20555;-42
2024/04/14 13:38:08;;;;;;;249.20;92.17;;;;;;;;;;5344719;26;20988;-42
2024/04/14 13:40:40;;;;;;;246.83;90.37;;;;;;;;;;5342788;26;20869;-42
2024/04/14 13:43:06;;;;;;;249.83;93.23;;;;;;;;;;5343243;26;20505;-42
2024/04/14 13:45:32;;;;;;;250.07;96.60;;;;;;;;;;5344561;26;20453;-42
2024/04/14 13:47:58;;;;;;;249.97;94.90;;;;;;;;;;5344794;26;20457;-42
2024/04/14 13:50:24;;;;;;;252.73;95.63;;;;;;;;;;5347773;26;20559;-43
2024/04/14 13:52:50;;;;;;;253.20;99.70;;;;;;;;;;5344463;26;20453;-43
2024/04/14 13:55:16;;;;;;;256.17;101.17;;;;;;;;;;5343837;26;20511;-42
2024/04/14 13:57:42;;;;;;;253.43;101.47;;;;;;;;;;5344173;26;20464;-42
2024/04/14 14:00:09;;;;;;;252.90;98.77;;;;;;;;;;5344339;26;21066;-43